createdAt,value
2024-04-09T00:00:23.042Z,10.23
2024-04-09T00:02:56.799Z,10.70
2024-04-09T00:05:27.564Z,7.20
2024-04-09T00:07:58.738Z,8.00
2024-04-09T00:10:26.975Z,10.30
2024-04-09T00:12:59.716Z,8.73
2024-04-09T00:15:30.449Z,6.68
2024-04-09T00:18:13.612Z,9.20
2024-04-09T00:20:43.397Z,7.67
2024-04-09T00:23:18.072Z,7.35
2024-04-09T00:25:46.610Z,6.63
2024-04-09T00:28:18.103Z,7.67
2024-04-09T00:30:47.644Z,7.38
2024-04-09T00:33:22.238Z,7.38
2024-04-09T00:35:52.371Z,5.90
2024-04-09T00:38:24.543Z,9.23
2024-04-09T00:40:52.838Z,6.93
2024-04-09T00:43:24.074Z,6.30
2024-04-09T00:45:52.780Z,7.38
2024-04-09T00:48:26.398Z,10.33
2024-04-09T00:50:55.151Z,7.07
2024-04-09T00:53:26.305Z,7.43
2024-04-09T00:55:55.717Z,6.73
2024-04-09T00:58:26.822Z,7.80
2024-04-09T01:00:55.230Z,9.13
2024-04-09T01:03:28.943Z,7.67
2024-04-09T01:05:57.548Z,7.30
2024-04-09T01:08:28.404Z,6.97
2024-04-09T01:10:56.664Z,8.27
2024-04-09T01:13:27.752Z,7.10
2024-04-09T01:15:56.026Z,7.23
2024-04-09T01:18:29.671Z,7.23
2024-04-09T01:20:58.680Z,6.83
2024-04-09T01:23:32.238Z,11.23
2024-04-09T01:26:00.503Z,8.27
2024-04-09T01:28:32.061Z,7.33
2024-04-09T01:31:02.508Z,6.60
2024-04-09T01:33:33.667Z,7.87
2024-04-09T01:36:05.958Z,9.30
2024-04-09T01:38:39.523Z,6.30
2024-04-09T01:41:10.751Z,8.23
2024-04-09T01:43:38.987Z,6.33
2024-04-09T01:46:13.083Z,7.07
2024-04-09T01:48:41.578Z,10.20
2024-04-09T01:51:15.378Z,7.93
2024-04-09T01:53:49.655Z,6.63
2024-04-09T01:56:20.775Z,7.37
2024-04-09T01:58:49.043Z,7.07
2024-04-09T02:01:20.385Z,8.27
2024-04-09T02:03:51.472Z,6.00
2024-04-09T02:06:23.415Z,7.53
2024-04-09T02:08:54.577Z,7.47
2024-04-09T02:11:29.810Z,6.83
2024-04-09T02:13:58.184Z,7.47
2024-04-09T02:16:29.064Z,7.90
2024-04-09T02:18:57.402Z,9.70
2024-04-09T02:21:28.348Z,7.33
2024-04-09T02:23:59.517Z,8.57
2024-04-09T02:26:32.925Z,7.87
2024-04-09T02:29:01.382Z,9.50
2024-04-09T02:31:32.435Z,7.13
2024-04-09T02:34:00.666Z,7.87
2024-04-09T02:36:31.706Z,7.83
2024-04-09T02:39:06.718Z,7.40
2024-04-09T02:41:37.987Z,7.93
2024-04-09T02:44:06.257Z,7.47
2024-04-09T02:46:38.599Z,8.77
2024-04-09T02:49:07.908Z,7.50
2024-04-09T02:51:41.105Z,7.30
2024-04-09T02:54:12.102Z,9.30
2024-04-09T02:56:43.057Z,6.80
2024-04-09T02:59:12.956Z,5.80
2024-04-09T03:01:43.757Z,7.50
2024-04-09T03:04:12.128Z,8.53
2024-04-09T03:06:43.273Z,9.83
2024-04-09T03:09:14.274Z,12.37
2024-04-09T03:11:45.226Z,8.63
2024-04-09T03:14:13.513Z,8.77
2024-04-09T03:16:44.412Z,8.03
2024-04-09T03:19:12.870Z,7.70
2024-04-09T03:21:46.023Z,7.80
2024-04-09T03:24:17.055Z,6.37
2024-04-09T03:26:48.573Z,7.10
2024-04-09T03:29:17.056Z,8.80
2024-04-09T03:31:47.855Z,8.23
2024-04-09T03:34:16.161Z,8.77
2024-04-09T03:36:47.156Z,12.37
2024-04-09T03:39:20.714Z,9.40
2024-04-09T03:41:53.264Z,10.03
2024-04-09T03:44:21.573Z,9.40
2024-04-09T03:46:52.398Z,11.60
2024-04-09T03:49:21.832Z,14.20
2024-04-09T03:51:52.889Z,10.37
2024-04-09T03:54:23.839Z,12.33
2024-04-09T03:56:54.705Z,11.50
2024-04-09T03:59:22.904Z,11.97
2024-04-09T04:01:53.792Z,10.63
2024-04-09T04:04:22.312Z,13.13
2024-04-09T04:06:53.272Z,12.70
2024-04-09T04:09:25.305Z,9.27
2024-04-09T04:11:56.351Z,13.50
2024-04-09T04:14:24.675Z,11.13
2024-04-09T04:16:55.563Z,10.20
2024-04-09T04:19:23.827Z,10.93
2024-04-09T04:21:54.716Z,12.90
2024-04-09T04:24:30.457Z,11.77
2024-04-09T04:26:58.822Z,15.03
2024-04-09T04:29:29.695Z,11.83
2024-04-09T04:31:57.968Z,12.23
2024-04-09T04:34:28.903Z,13.33
2024-04-09T04:36:57.649Z,14.37
2024-04-09T04:39:31.179Z,10.33
2024-04-09T04:42:00.599Z,10.57
2024-04-09T04:44:31.730Z,8.83
2024-04-09T04:47:00.019Z,10.50
2024-04-09T04:49:30.976Z,13.83
2024-04-09T04:52:00.486Z,8.93
2024-04-09T04:54:34.196Z,16.37
2024-04-09T04:57:02.623Z,10.10
2024-04-09T04:59:33.426Z,10.57
2024-04-09T05:02:03.052Z,11.37
2024-04-09T05:04:34.080Z,8.27
2024-04-09T05:07:02.499Z,8.97
2024-04-09T05:09:36.022Z,8.30
2024-04-09T05:12:05.577Z,8.40
2024-04-09T05:14:36.756Z,9.90
2024-04-09T05:17:05.438Z,10.87
2024-04-09T05:19:37.806Z,9.23
2024-04-09T05:22:06.196Z,8.83
2024-04-09T05:24:40.578Z,8.87
2024-04-09T05:27:08.971Z,10.00
2024-04-09T05:29:39.861Z,9.13
2024-04-09T05:32:08.114Z,9.37
2024-04-09T05:34:39.017Z,10.93
2024-04-09T05:37:07.234Z,11.53
2024-04-09T05:39:41.001Z,13.13
2024-04-09T05:42:09.385Z,9.27
2024-04-09T05:44:40.236Z,13.03
2024-04-09T05:47:08.550Z,29.70
2024-04-09T05:49:40.545Z,34.27
2024-04-09T05:52:08.970Z,14.07
2024-04-09T05:54:48.014Z,40.73
2024-04-09T05:57:16.381Z,32.43
2024-04-09T05:59:47.330Z,15.30
2024-04-09T06:02:15.647Z,23.57
2024-04-09T06:04:46.537Z,21.95
2024-04-09T06:07:17.475Z,15.35
2024-04-09T06:09:48.437Z,36.50
2024-04-09T06:12:20.111Z,22.17
2024-04-09T06:14:48.372Z,17.05
2024-04-09T06:17:19.181Z,22.48
2024-04-09T06:19:47.506Z,10.90
2024-04-09T06:22:18.379Z,16.23
2024-04-09T06:24:50.549Z,47.50
2024-04-09T06:27:21.681Z,47.83
2024-04-09T06:29:50.072Z,35.58
2024-04-09T06:32:20.952Z,17.95
2024-04-09T06:34:49.230Z,20.70
2024-04-09T06:37:20.036Z,17.92
2024-04-09T06:39:51.212Z,18.33
2024-04-09T06:42:22.311Z,14.77
2024-04-09T06:44:50.622Z,13.93
2024-04-09T06:47:22.471Z,8.85
2024-04-09T06:49:51.237Z,15.10
2024-04-09T06:52:22.283Z,23.88
2024-04-09T06:54:53.244Z,14.55
2024-04-09T06:57:24.230Z,15.13
2024-04-09T06:59:52.491Z,15.48
2024-04-09T07:02:23.356Z,8.60
2024-04-09T07:04:54.159Z,15.65
2024-04-09T07:07:22.715Z,8.50
2024-04-09T07:09:56.913Z,5.53
2024-04-09T07:12:25.113Z,8.82
2024-04-09T07:14:56.039Z,8.98
2024-04-09T07:17:24.454Z,5.68
2024-04-09T07:19:56.932Z,7.78
2024-04-09T07:22:25.371Z,5.55
2024-04-09T07:24:58.794Z,8.32
2024-04-09T07:27:27.018Z,8.60
2024-04-09T07:29:58.424Z,5.28
2024-04-09T07:32:26.946Z,6.35
2024-04-09T07:34:57.731Z,8.23
2024-04-09T07:37:25.904Z,8.77
2024-04-09T07:39:59.386Z,7.55
2024-04-09T07:42:27.974Z,8.20
2024-04-09T07:44:59.108Z,5.00
2024-04-09T07:47:27.368Z,12.82
2024-04-09T07:49:58.303Z,6.97
2024-04-09T07:52:26.609Z,6.68
2024-04-09T07:55:00.573Z,6.03
2024-04-09T07:57:29.148Z,4.38
2024-04-09T08:00:00.529Z,9.30
2024-04-09T08:02:29.421Z,5.97
2024-04-09T08:05:00.708Z,5.65
2024-04-09T08:07:29.266Z,6.05
2024-04-09T08:10:04.763Z,7.35
2024-04-09T08:12:33.281Z,7.60
2024-04-09T08:15:04.248Z,8.80
2024-04-09T08:17:32.757Z,9.25
2024-04-09T08:20:04.122Z,6.78
2024-04-09T08:22:32.673Z,8.48
2024-04-09T08:25:06.145Z,5.15
2024-04-09T08:27:34.746Z,6.53
2024-04-09T08:30:05.613Z,4.30
2024-04-09T08:32:34.310Z,7.28
2024-04-09T08:35:05.564Z,4.78
2024-04-09T08:37:33.981Z,6.50
2024-04-09T08:40:08.424Z,9.02
2024-04-09T08:42:39.277Z,9.52
2024-04-09T08:45:15.760Z,5.80
2024-04-09T08:47:45.879Z,8.10
2024-04-09T08:50:17.900Z,7.07
2024-04-09T08:52:47.104Z,8.07
2024-04-09T08:55:21.723Z,4.50
2024-04-09T08:57:51.075Z,8.57
2024-04-09T09:00:22.261Z,5.80
2024-04-09T09:02:50.602Z,8.38
2024-04-09T09:05:22.472Z,9.88
2024-04-09T09:08:02.974Z,4.95
2024-04-09T09:10:39.454Z,6.20
2024-04-09T09:13:08.250Z,3.80
2024-04-09T09:15:39.207Z,12.77
2024-04-09T09:18:07.777Z,6.22
2024-04-09T09:20:38.729Z,5.57
2024-04-09T09:23:08.013Z,9.02
2024-04-09T09:25:46.664Z,9.02
2024-04-09T09:28:16.391Z,4.80
2024-04-09T09:30:47.481Z,4.18
2024-04-09T09:33:20.584Z,8.90
2024-04-09T09:35:52.740Z,6.72
2024-04-09T09:38:22.200Z,4.47
2024-04-09T09:40:56.409Z,6.53
2024-04-09T09:43:25.634Z,5.15
2024-04-09T09:45:56.626Z,5.22
2024-04-09T09:48:26.478Z,7.75
2024-04-09T09:50:58.071Z,4.78
2024-04-09T09:53:26.565Z,4.93
2024-04-09T09:56:00.713Z,4.80
2024-04-09T09:58:32.484Z,6.13
2024-04-09T10:01:06.228Z,5.93
2024-04-09T10:03:34.898Z,4.82
2024-04-09T10:06:06.790Z,10.88
2024-04-09T10:08:35.594Z,5.70
2024-04-09T10:11:10.083Z,2.63
2024-04-09T10:13:45.891Z,5.50
2024-04-09T10:16:20.763Z,5.68
2024-04-09T10:18:49.506Z,8.05
2024-04-09T10:21:31.017Z,6.80
2024-04-09T10:24:00.795Z,4.30
2024-04-09T10:26:34.734Z,5.00
2024-04-09T10:29:06.860Z,7.57
2024-04-09T10:31:48.083Z,4.38
2024-04-09T10:34:24.872Z,10.10
2024-04-09T10:36:55.922Z,7.05
2024-04-09T10:39:25.803Z,9.23
2024-04-09T10:42:01.285Z,5.78
2024-04-09T10:44:29.666Z,6.57
2024-04-09T10:47:01.657Z,4.35
2024-04-09T10:49:30.077Z,4.63
2024-04-09T10:52:01.163Z,6.10
2024-04-09T10:54:29.715Z,3.85
2024-04-09T10:57:07.082Z,6.25
2024-04-09T10:59:35.270Z,6.15
2024-04-09T11:02:10.210Z,6.63
2024-04-09T11:04:38.676Z,5.43
2024-04-09T11:07:11.348Z,6.22
2024-04-09T11:09:39.923Z,2.78
2024-04-09T11:12:13.595Z,6.97
2024-04-09T11:14:43.152Z,5.95
2024-04-09T11:17:21.048Z,3.53
2024-04-09T11:19:50.785Z,4.35
2024-04-09T11:22:21.997Z,4.85
2024-04-09T11:24:50.252Z,4.10
2024-04-09T11:27:23.753Z,13.40
2024-04-09T11:29:52.021Z,6.50
2024-04-09T11:32:23.142Z,7.15
2024-04-09T11:34:51.548Z,6.60
2024-04-09T11:37:23.422Z,4.60
2024-04-09T11:39:52.285Z,7.47
2024-04-09T11:42:26.585Z,10.68
2024-04-09T11:45:01.314Z,4.50
2024-04-09T11:47:32.344Z,7.82
2024-04-09T11:50:00.670Z,5.28
2024-04-09T11:52:31.794Z,5.90
2024-04-09T11:55:00.092Z,9.15
2024-04-09T11:57:33.678Z,6.88
2024-04-09T12:00:02.302Z,3.10
2024-04-09T12:02:35.197Z,6.38
2024-04-09T12:05:03.683Z,6.40
2024-04-09T12:07:34.571Z,4.70
2024-04-09T12:10:02.915Z,5.60
2024-04-09T12:12:36.737Z,8.13
2024-04-09T12:15:05.575Z,4.18
2024-04-09T12:17:36.704Z,6.15
2024-04-09T12:20:06.209Z,3.60
2024-04-09T12:22:37.057Z,4.78
2024-04-09T12:25:05.960Z,7.22
2024-04-09T12:27:39.383Z,4.30
2024-04-09T12:30:09.570Z,3.25
2024-04-09T12:32:42.387Z,9.48
2024-04-09T12:35:11.379Z,4.47
2024-04-09T12:37:42.320Z,7.30
2024-04-09T12:40:12.573Z,1.90
2024-04-09T12:42:46.253Z,9.05
2024-04-09T12:45:14.965Z,5.22
2024-04-09T12:47:45.933Z,8.48
2024-04-09T12:50:16.103Z,5.93
2024-04-09T12:52:47.514Z,4.85
2024-04-09T12:55:16.061Z,10.30
2024-04-09T12:57:49.613Z,6.35
2024-04-09T13:00:40.291Z,5.55
2024-04-09T13:03:11.004Z,5.55
2024-04-09T13:05:39.547Z,6.90
2024-04-09T13:08:10.943Z,8.70
2024-04-09T13:10:39.400Z,7.30
2024-04-09T13:13:14.405Z,5.80
2024-04-09T13:18:16.767Z,4.53
2024-04-09T13:20:45.401Z,5.28
2024-04-09T13:23:16.365Z,3.35
2024-04-09T13:25:44.679Z,6.05
2024-04-09T13:28:18.184Z,4.68
2024-04-09T13:30:48.526Z,5.88
2024-04-09T13:33:19.366Z,6.30
2024-04-09T13:35:49.575Z,2.25
2024-04-09T13:38:20.474Z,4.10
2024-04-09T13:40:48.830Z,21.52
2024-04-09T13:43:23.068Z,6.97
2024-04-09T13:45:51.986Z,6.85
2024-04-09T13:48:23.255Z,5.07
2024-04-09T13:50:54.526Z,5.90
2024-04-09T13:53:26.525Z,4.97
2024-04-09T13:55:54.861Z,4.55
2024-04-09T13:58:28.670Z,2.95
2024-04-09T14:00:57.047Z,5.55
2024-04-09T14:03:28.102Z,6.28
2024-04-09T14:05:56.557Z,4.70
2024-04-09T14:08:27.453Z,4.40
2024-04-09T14:10:55.828Z,4.97
2024-04-09T14:13:30.509Z,3.67
2024-04-09T14:15:58.772Z,6.35
2024-04-09T14:18:32.729Z,8.55
2024-04-09T14:21:04.079Z,6.97
2024-04-09T14:23:36.138Z,3.65
2024-04-09T14:26:10.428Z,5.32
2024-04-09T14:28:43.657Z,4.38
2024-04-09T14:31:19.350Z,2.30
2024-04-09T14:33:48.257Z,4.15
2024-04-09T14:36:19.129Z,4.18
2024-04-09T14:38:47.333Z,11.48
2024-04-09T14:41:20.981Z,10.15
2024-04-09T14:43:52.325Z,9.63
2024-04-09T14:46:23.232Z,3.75
2024-04-09T14:48:53.545Z,2.38
2024-04-09T14:51:26.255Z,5.95
2024-04-09T14:53:54.496Z,7.50
2024-04-09T14:56:25.467Z,10.13
2024-04-09T14:58:56.477Z,6.45
2024-04-09T15:01:27.461Z,6.32
2024-04-09T15:03:55.942Z,4.60
2024-04-09T15:06:27.551Z,7.13
2024-04-09T15:08:55.856Z,6.60
2024-04-09T15:11:26.956Z,4.22
2024-04-09T15:13:58.383Z,2.60
2024-04-09T15:16:29.375Z,7.38
2024-04-09T15:18:57.659Z,4.80
2024-04-09T15:21:28.700Z,6.38
2024-04-09T15:23:57.354Z,5.60
2024-04-09T15:26:28.199Z,6.53
2024-04-09T15:28:59.108Z,6.72
2024-04-09T15:31:30.956Z,9.75
2024-04-09T15:33:59.328Z,7.32
2024-04-09T15:36:32.179Z,4.80
2024-04-09T15:39:00.598Z,3.88
2024-04-09T15:41:31.502Z,5.80
2024-04-09T15:44:02.407Z,7.50
2024-04-09T15:46:33.300Z,8.70
2024-04-09T15:49:01.630Z,2.05
2024-04-09T15:51:32.500Z,10.02
2024-04-09T15:54:01.976Z,2.63
2024-04-09T15:56:33.019Z,5.47
2024-04-09T15:59:04.609Z,13.18
2024-04-09T16:01:37.561Z,3.40
2024-04-09T16:04:06.118Z,3.63
2024-04-09T16:06:37.028Z,4.07
2024-04-09T16:09:09.301Z,7.88
2024-04-09T16:11:40.482Z,6.20
2024-04-09T16:14:11.659Z,13.23
2024-04-09T16:16:47.202Z,9.82
2024-04-09T16:19:16.164Z,3.20
2024-04-09T16:21:47.255Z,5.30
2024-04-09T16:24:15.434Z,11.43
2024-04-09T16:26:46.516Z,5.30
2024-04-09T16:29:17.538Z,5.95
2024-04-09T16:31:49.613Z,9.88
2024-04-09T16:34:18.096Z,7.07
2024-04-09T16:36:49.216Z,5.75
2024-04-09T16:39:17.611Z,4.28
2024-04-09T16:41:48.441Z,14.50
2024-04-09T16:44:19.296Z,5.63
2024-04-09T16:46:50.375Z,7.45
2024-04-09T16:49:18.719Z,5.53
2024-04-09T16:51:49.780Z,6.57
2024-04-09T16:54:17.996Z,7.43
2024-04-09T16:56:48.823Z,8.88
2024-04-09T16:59:20.198Z,4.72
2024-04-09T17:01:51.361Z,7.95
2024-04-09T17:04:19.927Z,13.65
2024-04-09T17:06:50.792Z,14.00
2024-04-09T17:09:18.988Z,9.65
2024-04-09T17:11:50.030Z,9.25
2024-04-09T17:14:24.698Z,11.60
2024-04-09T17:16:56.331Z,11.73
2024-04-09T17:19:25.785Z,10.68
2024-04-09T17:21:57.644Z,8.07
2024-04-09T17:24:25.787Z,6.47
2024-04-09T17:26:56.646Z,10.02
2024-04-09T17:29:30.996Z,24.50
2024-04-09T17:32:02.260Z,16.00
2024-04-09T17:34:30.952Z,10.50
2024-04-09T17:37:01.789Z,11.27
2024-04-09T17:39:29.993Z,11.48
2024-04-09T17:42:00.814Z,14.32
2024-04-09T17:44:31.784Z,14.55
2024-04-09T17:47:04.179Z,13.88
2024-04-09T17:49:32.780Z,13.70
2024-04-09T17:52:04.697Z,13.23
2024-04-09T17:54:32.931Z,14.38
2024-04-09T17:57:03.709Z,10.10
2024-04-09T17:59:34.649Z,5.30
2024-04-09T18:02:05.725Z,3.70
2024-04-09T18:04:35.781Z,7.70
2024-04-09T18:07:06.783Z,9.60
2024-04-09T18:09:36.315Z,18.02
2024-04-09T18:12:11.899Z,18.40
2024-04-09T18:14:43.421Z,16.80
2024-04-09T18:17:16.783Z,19.77
2024-04-09T18:19:45.114Z,14.57
2024-04-09T18:22:15.896Z,16.67
2024-04-09T18:24:44.461Z,11.18
2024-04-09T18:27:15.369Z,9.82
2024-04-09T18:29:46.757Z,11.27
2024-04-09T18:32:17.892Z,16.63
2024-04-09T18:34:46.194Z,11.23
2024-04-09T18:37:16.999Z,13.82
2024-04-09T18:39:51.931Z,14.80
2024-04-09T18:42:23.900Z,11.93
2024-04-09T18:44:54.820Z,8.30
2024-04-09T18:47:26.228Z,6.32
2024-04-09T18:49:54.628Z,11.30
2024-04-09T18:52:27.000Z,8.20
2024-04-09T18:54:55.279Z,8.13
2024-04-09T18:57:26.133Z,10.77
2024-04-09T18:59:57.014Z,8.57
2024-04-09T19:02:28.241Z,7.63
2024-04-09T19:04:57.386Z,11.98
2024-04-09T19:07:28.422Z,4.70
2024-04-09T19:09:56.590Z,4.75
2024-04-09T19:12:28.684Z,4.35
2024-04-09T19:14:59.656Z,14.35
2024-04-09T19:17:30.680Z,11.43
2024-04-09T19:19:59.112Z,10.20
2024-04-09T19:22:29.963Z,9.88
2024-04-09T19:24:58.169Z,11.60
2024-04-09T19:27:29.048Z,10.48
2024-04-09T19:29:59.935Z,11.50
2024-04-09T19:32:32.820Z,7.90
2024-04-09T19:35:01.292Z,6.93
2024-04-09T19:37:33.357Z,10.95
2024-04-09T19:40:01.755Z,21.70
2024-04-09T19:42:33.234Z,12.93
2024-04-09T19:45:04.504Z,9.13
2024-04-09T19:47:35.782Z,10.65
2024-04-09T19:50:04.716Z,9.50
2024-04-09T19:52:35.710Z,11.88
2024-04-09T19:55:05.245Z,10.05
2024-04-09T19:57:37.021Z,10.63
2024-04-09T20:00:11.218Z,12.57
2024-04-09T20:02:44.934Z,8.88
2024-04-09T20:05:13.319Z,11.95
2024-04-09T20:07:44.408Z,12.25
2024-04-09T20:10:12.681Z,9.48
2024-04-09T20:12:43.528Z,17.40
2024-04-09T20:15:14.354Z,10.73
2024-04-09T20:17:45.434Z,6.97
2024-04-09T20:20:14.911Z,11.52
2024-04-09T20:22:46.215Z,14.25
2024-04-09T20:25:14.684Z,11.65
2024-04-09T20:27:45.708Z,11.32
2024-04-09T20:30:16.983Z,13.00
2024-04-09T20:32:48.123Z,9.82
2024-04-09T20:35:22.105Z,16.63
2024-04-09T20:37:56.130Z,14.35
2024-04-09T20:40:24.980Z,19.63
2024-04-09T20:42:55.780Z,14.73
2024-04-09T20:45:26.629Z,21.67
2024-04-09T20:47:57.603Z,18.65
2024-04-09T20:50:27.866Z,19.77
2024-04-09T20:52:58.971Z,14.68
2024-04-09T20:55:27.260Z,22.90
2024-04-09T20:57:58.090Z,15.57
2024-04-09T21:00:29.061Z,16.85
2024-04-09T21:03:01.899Z,14.00
2024-04-09T21:05:30.926Z,17.70
2024-04-09T21:08:01.866Z,13.02
2024-04-09T21:10:30.087Z,19.60
2024-04-09T21:13:00.988Z,18.17
2024-04-09T21:15:32.663Z,15.35
2024-04-09T21:18:04.875Z,17.70
2024-04-09T21:20:33.380Z,17.25
2024-04-09T21:23:04.416Z,14.65
2024-04-09T21:25:32.729Z,20.48
2024-04-09T21:28:04.265Z,14.90
2024-04-09T21:30:35.228Z,16.25
2024-04-09T21:33:09.383Z,10.45
2024-04-09T21:35:40.632Z,12.60
2024-04-09T21:38:11.757Z,15.40
2024-04-09T21:40:40.077Z,12.48
2024-04-09T21:43:10.897Z,12.32
2024-04-09T21:45:41.927Z,11.20
2024-04-09T21:48:13.025Z,8.35
2024-04-09T21:50:41.453Z,11.43
2024-04-09T21:53:12.390Z,9.38
2024-04-09T21:55:40.675Z,12.77
2024-04-09T21:58:11.583Z,13.48
2024-04-09T22:00:48.190Z,9.32
2024-04-09T22:03:19.155Z,9.45
2024-04-09T22:05:47.945Z,11.40
2024-04-09T22:08:18.985Z,12.65
2024-04-09T22:10:48.082Z,11.77
2024-04-09T22:13:18.953Z,7.65
2024-04-09T22:15:49.835Z,15.52
2024-04-09T22:18:20.743Z,15.47
2024-04-09T22:20:49.062Z,11.43
2024-04-09T22:23:19.892Z,10.90
2024-04-09T22:25:55.700Z,13.03
2024-04-09T22:28:26.876Z,13.20
2024-04-09T22:30:58.005Z,10.13
2024-04-09T22:33:29.752Z,9.73
2024-04-09T22:35:58.071Z,7.90
2024-04-09T22:38:29.027Z,14.03
2024-04-09T22:40:57.362Z,15.27
2024-04-09T22:43:28.160Z,10.43
2024-04-09T22:46:02.551Z,9.47
2024-04-09T22:48:34.423Z,8.73
2024-04-09T22:51:02.844Z,11.93
2024-04-09T22:53:33.828Z,9.20
2024-04-09T22:56:02.588Z,10.53
2024-04-09T22:58:34.629Z,8.33
2024-04-09T23:01:06.758Z,8.33
2024-04-09T23:03:39.347Z,11.70
2024-04-09T23:06:09.663Z,8.33
2024-04-09T23:08:40.834Z,9.27
2024-04-09T23:11:10.457Z,8.93
2024-04-09T23:13:42.222Z,10.67
2024-04-09T23:16:13.667Z,6.67
2024-04-09T23:18:45.523Z,8.83
2024-04-09T23:21:13.802Z,5.27
2024-04-09T23:23:45.017Z,5.77
2024-04-09T23:26:14.841Z,10.63
2024-04-09T23:28:45.768Z,7.43
2024-04-09T23:31:18.157Z,7.87
2024-04-09T23:33:49.191Z,6.03
2024-04-09T23:36:17.982Z,9.27
2024-04-09T23:38:49.070Z,7.53
2024-04-09T23:41:17.423Z,10.60
2024-04-09T23:43:48.237Z,8.30
2024-04-09T23:46:19.280Z,8.57
2024-04-09T23:48:50.459Z,13.80
2024-04-09T23:51:18.840Z,8.30
2024-04-09T23:53:51.665Z,8.00
2024-04-09T23:56:20.261Z,9.38
2024-04-09T23:58:51.123Z,9.70
